Nearby METAR Data
EGNX - East Midlands, United Kingdom
Distance from station: SSE 24mi, 39km
Updated: 16/07/2018 05:20
Clear
Clear
 Wind from WSW
Wind: WSW 7 mph , 11 km/h
Temperature: 14°C
Dew Point: 12°C
Humidity: 88%
Barometer: 1014 hPa
Summary: Clear
Visibility: greater than 7 miles , 10 km
2018/07/16 04:20 EGNX 160420Z 25006KT CAVOK 14/12 Q1014
EGCN - Doncaster Sheffi, United Kingdom
Distance from station: NE 31mi, 49km
Updated: 16/07/2018 05:20
Clear
Clear
 Wind from SSW
Wind: SSW 3 mph , 6 km/h
Temperature: 14°C
Dew Point: 13°C
Humidity: 94%
Barometer: 1014 hPa
Summary: Clear
Visibility: greater than 7 miles , 10 km
2018/07/16 04:20 EGCN 160420Z 20003KT CAVOK 14/13 Q1014
 
EGXS - Swinderby Raf, United Kingdom
Distance from station: E 33mi, 54km
Updated: 16/07/2018 04:50
Clear
Clear
 Wind from W
Wind: W 9 mph , 15 km/h
Temperature: 15°C
Dew Point: 12°C
Humidity: 82%
Barometer: 1013 hPa
Clouds: Clear
Visibility: 6 miles , 10 km
2018/07/16 03:50 EGXS 160350Z AUTO 27008KT 9999 // NCD 15/12 Q1013
EGCC - Manchester Intl, United Kingdom
Distance from station: WNW 35mi, 56km
Updated: 16/07/2018 05:20
Clear
Clear
 Wind from varies
Wind: varies 3 mph , 6 km/h
Temperature: 17°C
Dew Point: 14°C
Humidity: 83%
Barometer: 1013 hPa
Clouds: Clear
Visibility: 6 miles , 10 km
2018/07/16 04:20 EGCC 160420Z AUTO VRB03KT 9999 NCD 17/14 Q1013
 
EGXP - Scampton Raf, United Kingdom
Distance from station: ENE 40mi, 65km
Updated: 16/07/2018 04:50
Clear
Clear
 Wind from W
Wind: W 8 mph , 13 km/h
Temperature: 14°C
Dew Point: 12°C
Humidity: 88%
Barometer: 1013 hPa
Clouds: Clear
Visibility: 6 miles , 10 km
2018/07/16 03:50 EGXP 160350Z AUTO 26007KT 9999 // NCD 14/12 Q1013
EGXW - Waddington Raf, United Kingdom
Distance from station: E 40mi, 65km
Updated: 16/07/2018 04:50
Clear
Clear
 Wind from W
Wind: W 7 mph , 11 km/h
Temperature: 16°C
Dew Point: 13°C
Humidity: 83%
Barometer: 1013 hPa
Summary: Clear
Visibility: greater than 7 miles , 10 km
2018/07/16 03:50 EGXW 160350Z 28006KT CAVOK 16/13 Q1013 BLU